createdAt,value
2019-06-10T00:01:08.224Z,101374.62
2019-06-10T00:02:15.170Z,101373.69
2019-06-10T00:03:22.176Z,101375.09
2019-06-10T00:04:30.874Z,101375.03
2019-06-10T00:05:37.893Z,101369.03
2019-06-10T00:06:45.583Z,101374.11
2019-06-10T00:07:52.474Z,101372.77
2019-06-10T00:09:03.093Z,101372.34
2019-06-10T00:10:10.790Z,101368.56
2019-06-10T00:11:21.038Z,101372.20
2019-06-10T00:12:27.178Z,101367.54
2019-06-10T00:13:34.699Z,101369.86
2019-06-10T00:14:41.993Z,101373.73
2019-06-10T00:15:51.542Z,101372.39
2019-06-10T00:16:59.487Z,101365.14
2019-06-10T00:18:32.906Z,101362.26
2019-06-10T00:19:17.049Z,101360.91
2019-06-10T00:20:25.024Z,101360.13
2019-06-10T00:21:31.865Z,101363.77
2019-06-10T00:22:40.920Z,101364.42
2019-06-10T00:23:48.430Z,101359.30
2019-06-10T00:24:55.981Z,101359.25
2019-06-10T00:26:05.828Z,101353.56
2019-06-10T00:27:12.150Z,101338.04
2019-06-10T00:28:21.578Z,101340.22
2019-06-10T00:29:31.097Z,101338.14
2019-06-10T00:30:37.096Z,101326.40
2019-06-10T00:31:44.988Z,101325.05
2019-06-10T00:32:51.835Z,101321.63
2019-06-10T00:34:02.751Z,101319.88
2019-06-10T00:35:10.074Z,101319.00
2019-06-10T00:36:18.301Z,101319.88
2019-06-10T00:37:25.324Z,101312.31
2019-06-10T00:38:32.939Z,101311.29
2019-06-10T00:39:40.910Z,101312.94
2019-06-10T00:40:51.144Z,101309.94
2019-06-10T00:41:57.396Z,101310.67
2019-06-10T00:43:06.878Z,101307.30
2019-06-10T00:44:13.788Z,101298.20
2019-06-10T00:45:21.718Z,101302.97
2019-06-10T00:46:28.707Z,101295.67
2019-06-10T00:47:36.662Z,101300.58
2019-06-10T00:48:43.408Z,101294.05
2019-06-10T00:49:51.446Z,101295.02
2019-06-10T00:51:00.916Z,101291.52
2019-06-10T00:52:09.389Z,101290.55
2019-06-10T00:53:16.408Z,101296.55
2019-06-10T00:54:24.095Z,101293.59
2019-06-10T00:55:31.433Z,101290.28
2019-06-10T00:56:41.232Z,101286.78
2019-06-10T00:57:47.900Z,101279.48
2019-06-10T00:58:55.789Z,101278.64
2019-06-10T01:00:12.537Z,101271.31
2019-06-10T01:01:14.560Z,101275.62
2019-06-10T01:02:21.484Z,101276.48
2019-06-10T01:03:31.390Z,101271.89
2019-06-10T01:04:37.839Z,101270.75
2019-06-10T01:05:45.375Z,101269.25
2019-06-10T01:06:52.704Z,101261.95
2019-06-10T01:08:01.379Z,101263.40
2019-06-10T01:09:14.815Z,101262.05
2019-06-10T01:10:21.928Z,101252.59
2019-06-10T01:11:30.841Z,101254.03
2019-06-10T01:12:37.908Z,101250.87
2019-06-10T01:13:45.028Z,101249.93
2019-06-10T01:14:52.556Z,101251.27
2019-06-10T01:16:01.511Z,101245.73
2019-06-10T01:17:10.876Z,101251.00
2019-06-10T01:18:34.167Z,101244.09
2019-06-10T01:19:26.388Z,101243.77
2019-06-10T01:20:33.821Z,101243.30
2019-06-10T01:21:41.722Z,101245.52
2019-06-10T01:22:48.602Z,101245.38
2019-06-10T01:23:57.207Z,101240.39
2019-06-10T01:25:05.218Z,101247.97
2019-06-10T01:26:16.277Z,101247.41
2019-06-10T01:27:21.760Z,101239.72
2019-06-10T01:28:31.401Z,101238.98
2019-06-10T01:29:38.488Z,101237.28
2019-06-10T01:30:46.015Z,101232.48
2019-06-10T01:31:53.108Z,101234.59
2019-06-10T01:33:01.158Z,101231.23
2019-06-10T01:34:07.970Z,101228.25
2019-06-10T01:35:16.156Z,101233.19
2019-06-10T01:36:24.684Z,101229.31
2019-06-10T01:37:32.214Z,101228.48
2019-06-10T01:38:40.931Z,101228.43
2019-06-10T01:39:48.223Z,101232.30
2019-06-10T01:40:55.100Z,101232.91
2019-06-10T01:42:03.128Z,101230.28
2019-06-10T01:43:13.287Z,101229.97
2019-06-10T01:44:22.102Z,101228.63
2019-06-10T01:45:28.253Z,101224.34
2019-06-10T01:46:36.176Z,101218.30
2019-06-10T01:47:43.675Z,101214.66
2019-06-10T01:48:52.153Z,101206.87
2019-06-10T01:50:00.694Z,101208.53
2019-06-10T01:51:09.060Z,101206.87
2019-06-10T01:52:16.963Z,101201.02
2019-06-10T01:53:25.583Z,101206.19
2019-06-10T01:54:32.333Z,101205.96
2019-06-10T01:55:41.748Z,101200.80
2019-06-10T01:56:50.969Z,101202.55
2019-06-10T01:58:00.727Z,101199.55
2019-06-10T01:59:07.953Z,101201.30
2019-06-10T02:00:22.526Z,101199.05
2019-06-10T02:01:41.310Z,101195.28
2019-06-10T02:02:52.175Z,101192.87
2019-06-10T02:04:00.762Z,101186.23
2019-06-10T02:05:11.544Z,101189.08
2019-06-10T02:06:20.512Z,101191.58
2019-06-10T02:07:27.244Z,101189.45
2019-06-10T02:08:34.290Z,101182.53
2019-06-10T02:09:42.147Z,101179.95
2019-06-10T02:10:50.954Z,101177.45
2019-06-10T02:11:58.699Z,101171.83
2019-06-10T02:13:07.655Z,101175.34
2019-06-10T02:14:17.858Z,101172.59
2019-06-10T02:15:24.845Z,101176.09
2019-06-10T02:16:32.610Z,101177.38
2019-06-10T02:17:41.582Z,101180.70
2019-06-10T02:19:00.181Z,101176.98
2019-06-10T02:19:58.074Z,101174.45
2019-06-10T02:21:05.634Z,101172.51
2019-06-10T02:22:15.023Z,101173.29
2019-06-10T02:23:23.244Z,101175.01
2019-06-10T02:24:31.472Z,101170.40
2019-06-10T02:25:41.205Z,101177.03
2019-06-10T02:26:47.905Z,101171.09
2019-06-10T02:27:55.411Z,101168.63
2019-06-10T02:29:02.481Z,101163.92
2019-06-10T02:30:18.851Z,101162.68
2019-06-10T02:31:29.042Z,101158.75
2019-06-10T02:32:36.932Z,101160.05
2019-06-10T02:33:37.804Z,101157.56
2019-06-10T02:35:01.357Z,101151.57
2019-06-10T02:35:54.045Z,101151.63
2019-06-10T02:37:04.655Z,101153.27
2019-06-10T02:38:10.165Z,101151.52
2019-06-10T02:39:24.635Z,101148.44
2019-06-10T02:40:32.142Z,101146.73
2019-06-10T02:41:36.509Z,101143.27
2019-06-10T02:42:45.407Z,101149.67
2019-06-10T02:43:53.570Z,101145.34
2019-06-10T02:45:03.751Z,101143.17
2019-06-10T02:46:13.119Z,101143.98
2019-06-10T02:47:23.056Z,101138.62
2019-06-10T02:48:30.464Z,101147.20
2019-06-10T02:49:52.777Z,101144.61
2019-06-10T02:51:06.783Z,101137.70
2019-06-10T02:52:23.294Z,101143.42
2019-06-10T02:53:32.143Z,101140.19
2019-06-10T02:54:37.906Z,101136.23
2019-06-10T02:55:45.448Z,101140.19
2019-06-10T02:56:53.717Z,101132.04
2019-06-10T02:58:03.951Z,101136.42
2019-06-10T02:59:13.265Z,101129.92
2019-06-10T03:00:34.241Z,101131.26
2019-06-10T03:01:34.298Z,101126.61
2019-06-10T03:02:39.881Z,101120.44
2019-06-10T03:03:49.553Z,101119.06
2019-06-10T03:04:56.665Z,101116.48
2019-06-10T03:06:06.944Z,101112.33
2019-06-10T03:07:13.738Z,101108.47
2019-06-10T03:08:25.999Z,101117.45
2019-06-10T03:09:32.005Z,101109.75
2019-06-10T03:10:38.499Z,101110.67
2019-06-10T03:11:46.073Z,101108.41
2019-06-10T03:12:53.174Z,101104.55
2019-06-10T03:14:02.621Z,101106.06
2019-06-10T03:15:09.402Z,101098.88
2019-06-10T03:16:42.296Z,101107.00
2019-06-10T03:17:49.201Z,101101.28
2019-06-10T03:18:56.825Z,101107.78
2019-06-10T03:20:03.600Z,101104.27
2019-06-10T03:21:12.384Z,101100.72
2019-06-10T03:22:22.174Z,101104.55
2019-06-10T03:23:29.050Z,101103.66
2019-06-10T03:24:35.791Z,101102.84
2019-06-10T03:25:43.366Z,101104.95
2019-06-10T03:26:52.206Z,101103.66
2019-06-10T03:28:00.349Z,101106.24
2019-06-10T03:29:07.113Z,101098.98
2019-06-10T03:30:20.843Z,101097.36
2019-06-10T03:31:30.966Z,101094.83
2019-06-10T03:32:40.380Z,101097.69
2019-06-10T03:33:47.013Z,101104.14
2019-06-10T03:34:54.463Z,101099.44
2019-06-10T03:35:59.439Z,101099.34
2019-06-10T03:37:07.286Z,101093.44
2019-06-10T03:38:14.047Z,101096.15
2019-06-10T03:39:23.868Z,101087.55
2019-06-10T03:40:32.683Z,101088.33
2019-06-10T03:41:42.216Z,101077.91
2019-06-10T03:42:48.502Z,101081.41
2019-06-10T03:43:56.075Z,101084.81
2019-06-10T03:45:03.393Z,101078.27
2019-06-10T03:46:13.581Z,101083.70
2019-06-10T03:47:21.125Z,101077.62
2019-06-10T03:48:29.180Z,101076.41
2019-06-10T03:49:49.009Z,101081.44
2019-06-10T03:50:45.556Z,101080.09
2019-06-10T03:51:53.005Z,101081.84
2019-06-10T03:53:03.773Z,101086.91
2019-06-10T03:54:09.427Z,101086.95
2019-06-10T03:55:17.728Z,101083.97
2019-06-10T03:56:25.431Z,101082.58
2019-06-10T03:57:33.722Z,101079.21
2019-06-10T03:58:42.764Z,101083.03
2019-06-10T03:59:49.836Z,101079.21
2019-06-10T04:00:57.750Z,101080.05
2019-06-10T04:02:05.504Z,101075.91
2019-06-10T04:03:12.617Z,101074.81
2019-06-10T04:04:23.449Z,101077.80
2019-06-10T04:05:28.960Z,101076.11
2019-06-10T04:06:36.532Z,101078.36
2019-06-10T04:07:43.297Z,101078.31
2019-06-10T04:08:52.210Z,101080.44
2019-06-10T04:09:59.216Z,101082.61
2019-06-10T04:11:06.789Z,101078.41
2019-06-10T04:12:13.947Z,101079.66
2019-06-10T04:13:23.663Z,101081.31
2019-06-10T04:14:30.009Z,101083.29
2019-06-10T04:15:37.583Z,101086.33
2019-06-10T04:16:44.746Z,101089.36
2019-06-10T04:17:53.074Z,101088.17
2019-06-10T04:19:02.498Z,101086.38
2019-06-10T04:20:13.182Z,101090.05
2019-06-10T04:21:20.310Z,101089.17
2019-06-10T04:22:28.398Z,101086.95
2019-06-10T04:23:36.062Z,101095.02
2019-06-10T04:24:43.889Z,101085.00
2019-06-10T04:25:52.775Z,101086.75
2019-06-10T04:27:02.628Z,101087.53
2019-06-10T04:28:08.922Z,101086.86
2019-06-10T04:29:16.489Z,101083.50
2019-06-10T04:30:26.065Z,101079.63
2019-06-10T04:31:33.160Z,101079.48
2019-06-10T04:32:42.766Z,101072.56
2019-06-10T04:33:52.309Z,101080.36
2019-06-10T04:34:58.586Z,101076.64
2019-06-10T04:36:06.444Z,101079.36
2019-06-10T04:37:13.962Z,101080.87
2019-06-10T04:38:23.363Z,101076.59
2019-06-10T04:39:30.219Z,101080.14
2019-06-10T04:40:38.112Z,101076.42
2019-06-10T04:41:45.207Z,101077.41
2019-06-10T04:42:52.749Z,101075.61
2019-06-10T04:43:59.501Z,101075.08
2019-06-10T04:45:08.428Z,101078.84
2019-06-10T04:46:15.584Z,101079.06
2019-06-10T04:47:25.245Z,101079.33
2019-06-10T04:48:33.017Z,101080.95
2019-06-10T04:49:42.707Z,101073.05
2019-06-10T04:50:49.427Z,101076.41
2019-06-10T04:51:57.320Z,101070.30
2019-06-10T04:53:04.112Z,101075.16
2019-06-10T04:54:13.401Z,101070.38
2019-06-10T04:55:23.164Z,101070.38
2019-06-10T04:56:31.171Z,101069.54
2019-06-10T04:57:38.561Z,101066.55
2019-06-10T04:58:46.753Z,101072.63
2019-06-10T04:59:53.526Z,101067.93
2019-06-10T05:01:03.007Z,101065.40
2019-06-10T05:02:12.674Z,101066.50
2019-06-10T05:03:21.530Z,101060.50
2019-06-10T05:04:30.727Z,101064.32
2019-06-10T05:05:39.004Z,101066.50
2019-06-10T05:06:45.807Z,101065.50
2019-06-10T05:07:53.350Z,101062.00
2019-06-10T05:09:00.090Z,101061.39
2019-06-10T05:10:09.464Z,101057.59
2019-06-10T05:11:16.260Z,101052.64
2019-06-10T05:12:26.229Z,101054.88
2019-06-10T05:13:33.525Z,101051.87
2019-06-10T05:14:43.262Z,101053.59
2019-06-10T05:15:52.568Z,101048.37
2019-06-10T05:17:02.049Z,101050.06
2019-06-10T05:18:08.187Z,101050.64
2019-06-10T05:19:16.464Z,101052.28
2019-06-10T05:20:39.157Z,101048.61
2019-06-10T05:21:33.779Z,101049.84
2019-06-10T05:22:42.417Z,101051.34
2019-06-10T05:23:52.108Z,101043.85
2019-06-10T05:24:58.545Z,101043.85
2019-06-10T05:26:06.154Z,101040.26
2019-06-10T05:27:12.883Z,101044.99
2019-06-10T05:28:22.715Z,101043.70
2019-06-10T05:29:29.917Z,101035.95
2019-06-10T05:30:38.703Z,101036.73
2019-06-10T05:31:45.457Z,101034.81
2019-06-10T05:32:53.398Z,101033.72
2019-06-10T05:34:02.387Z,101036.16
2019-06-10T05:35:12.209Z,101033.72
2019-06-10T05:36:18.203Z,101043.02
2019-06-10T05:37:26.709Z,101035.53
2019-06-10T05:38:35.338Z,101036.59
2019-06-10T05:39:43.565Z,101037.94
2019-06-10T05:40:52.119Z,101038.28
2019-06-10T05:41:59.943Z,101041.52
2019-06-10T05:43:07.036Z,101046.37
2019-06-10T05:44:14.620Z,101044.44
2019-06-10T05:45:24.485Z,101045.21
2019-06-10T05:46:34.673Z,101044.23
2019-06-10T05:47:42.504Z,101040.87
2019-06-10T05:48:49.322Z,101039.92
2019-06-10T05:49:56.504Z,101043.52
2019-06-10T05:51:06.840Z,101038.41
2019-06-10T05:52:12.963Z,101037.00
2019-06-10T05:53:23.107Z,101040.41
2019-06-10T05:54:29.165Z,101039.92
2019-06-10T05:55:37.051Z,101032.34
2019-06-10T05:56:44.036Z,101034.81
2019-06-10T05:57:53.286Z,101038.28
2019-06-10T05:59:02.240Z,101038.63
2019-06-10T06:00:14.880Z,101035.92
2019-06-10T06:01:22.947Z,101035.09
2019-06-10T06:02:33.622Z,101035.55
2019-06-10T06:03:40.758Z,101031.36
2019-06-10T06:04:48.533Z,101024.99
2019-06-10T06:05:55.303Z,101024.84
2019-06-10T06:07:03.180Z,101029.03
2019-06-10T06:08:12.394Z,101028.17
2019-06-10T06:09:19.529Z,101028.94
2019-06-10T06:10:27.242Z,101030.05
2019-06-10T06:11:35.357Z,101032.30
2019-06-10T06:12:42.706Z,101030.06
2019-06-10T06:13:52.239Z,101024.43
2019-06-10T06:14:59.127Z,101022.80
2019-06-10T06:16:07.018Z,101030.06
2019-06-10T06:17:16.570Z,101022.15
2019-06-10T06:18:23.418Z,101019.13
2019-06-10T06:19:30.824Z,101020.33
2019-06-10T06:20:39.503Z,101018.45
2019-06-10T06:21:47.784Z,101014.14
2019-06-10T06:22:55.992Z,101012.27
2019-06-10T06:24:04.070Z,101010.85
2019-06-10T06:25:15.316Z,101008.11
2019-06-10T06:26:23.651Z,101005.73
2019-06-10T06:27:33.863Z,101008.88
2019-06-10T06:28:43.141Z,101006.53
2019-06-10T06:29:52.328Z,101009.11
2019-06-10T06:30:59.203Z,101005.45
2019-06-10T06:32:07.088Z,101011.82
2019-06-10T06:33:14.366Z,101009.33
2019-06-10T06:34:22.649Z,101009.70
2019-06-10T06:35:33.006Z,101009.70
2019-06-10T06:36:39.470Z,101017.09
2019-06-10T06:37:46.248Z,101021.98
2019-06-10T06:38:54.177Z,101019.57
2019-06-10T06:40:02.841Z,101016.02
2019-06-10T06:41:13.435Z,101015.80
2019-06-10T06:42:19.501Z,101008.98
2019-06-10T06:43:29.040Z,101016.21
2019-06-10T06:44:37.726Z,101004.27
2019-06-10T06:45:45.132Z,101012.27
2019-06-10T06:46:53.269Z,101012.53
2019-06-10T06:48:02.999Z,101007.59
2019-06-10T06:49:09.518Z,101005.70
2019-06-10T06:50:17.973Z,101006.77
2019-06-10T06:51:36.491Z,101003.31
2019-06-10T06:53:07.409Z,101001.31
2019-06-10T06:53:48.418Z,101006.49
2019-06-10T06:54:53.040Z,101003.03
2019-06-10T06:56:02.966Z,101003.09
2019-06-10T06:57:10.144Z,101004.07
2019-06-10T06:58:17.213Z,101005.73
2019-06-10T06:59:25.137Z,101009.68
2019-06-10T07:00:53.172Z,101005.56
2019-06-10T07:01:46.276Z,101005.03
2019-06-10T07:02:53.157Z,101005.20
2019-06-10T07:04:02.666Z,101004.83
2019-06-10T07:05:12.400Z,100998.42
2019-06-10T07:06:22.923Z,100993.42
2019-06-10T07:07:33.134Z,100987.71
2019-06-10T07:08:51.747Z,100984.66
2019-06-10T07:09:55.460Z,100988.94
2019-06-10T07:11:05.804Z,100987.45
2019-06-10T07:12:13.026Z,100993.42
2019-06-10T07:13:22.224Z,100997.41
2019-06-10T07:14:34.347Z,100996.91
2019-06-10T07:15:46.977Z,100993.62
2019-06-10T07:16:52.941Z,100993.25
2019-06-10T07:18:02.355Z,100992.12
2019-06-10T07:19:09.289Z,100995.77
2019-06-10T07:20:17.248Z,100990.87
2019-06-10T07:21:24.074Z,100994.05
2019-06-10T07:22:33.573Z,100990.42
2019-06-10T07:23:45.134Z,100991.04
2019-06-10T07:24:52.642Z,100992.72
2019-06-10T07:25:58.409Z,100992.73
2019-06-10T07:27:06.022Z,100992.95
2019-06-10T07:28:12.961Z,100994.64
2019-06-10T07:29:22.647Z,100997.92
2019-06-10T07:30:29.377Z,100999.03
2019-06-10T07:31:38.045Z,101002.09
2019-06-10T07:32:47.422Z,101000.09
2019-06-10T07:33:55.441Z,101000.66
2019-06-10T07:35:02.893Z,100998.59
2019-06-10T07:36:13.173Z,100996.73
2019-06-10T07:37:19.536Z,101001.28
2019-06-10T07:38:27.484Z,101002.44
2019-06-10T07:39:36.449Z,101004.85
2019-06-10T07:40:45.859Z,101005.84
2019-06-10T07:41:53.102Z,101000.25
2019-06-10T07:43:02.328Z,100997.17
2019-06-10T07:44:09.354Z,100988.81
2019-06-10T07:45:17.174Z,100996.14
2019-06-10T07:46:24.001Z,100987.77
2019-06-10T07:47:32.646Z,100988.09
2019-06-10T07:48:42.163Z,100985.29
2019-06-10T07:49:52.108Z,100985.68
2019-06-10T07:50:58.517Z,100984.19
2019-06-10T07:52:15.748Z,100985.64
2019-06-10T07:53:14.920Z,100987.89
2019-06-10T07:54:23.277Z,100983.52
2019-06-10T07:55:32.797Z,100980.37
2019-06-10T07:56:45.241Z,100981.98
2019-06-10T07:57:48.149Z,100980.59
2019-06-10T07:58:55.773Z,100975.70
2019-06-10T08:00:03.134Z,100976.62
2019-06-10T08:01:13.216Z,100970.95
2019-06-10T08:02:19.615Z,100973.22
2019-06-10T08:03:27.255Z,100975.54
2019-06-10T08:04:35.211Z,100974.84
2019-06-10T08:05:46.290Z,100974.77
2019-06-10T08:06:53.110Z,100977.08
2019-06-10T08:08:02.814Z,100974.48
2019-06-10T08:09:09.350Z,100975.03
2019-06-10T08:10:17.489Z,100972.72
2019-06-10T08:11:24.643Z,100972.52
2019-06-10T08:12:32.681Z,100971.97
2019-06-10T08:13:39.523Z,100962.76
2019-06-10T08:14:47.970Z,100961.77
2019-06-10T08:15:55.184Z,100968.64
2019-06-10T08:17:03.173Z,100962.98
2019-06-10T08:18:10.404Z,100962.59
2019-06-10T08:19:31.538Z,100962.78
2019-06-10T08:20:45.247Z,100957.63
2019-06-10T08:21:53.704Z,100960.34
2019-06-10T08:23:02.232Z,100951.70
2019-06-10T08:24:09.054Z,100959.05
2019-06-10T08:25:16.857Z,100955.98
2019-06-10T08:26:23.698Z,100952.98
2019-06-10T08:27:33.563Z,100944.30
2019-06-10T08:28:39.757Z,100948.77
2019-06-10T08:29:49.493Z,100943.59
2019-06-10T08:30:56.218Z,100943.95
2019-06-10T08:32:04.137Z,100942.75
2019-06-10T08:33:13.590Z,100947.40
2019-06-10T08:34:22.183Z,100947.96
2019-06-10T08:35:39.444Z,100943.05
2019-06-10T08:36:39.942Z,100944.53
2019-06-10T08:37:47.516Z,100937.64
2019-06-10T08:38:55.116Z,100937.64
2019-06-10T08:40:03.771Z,100938.02
2019-06-10T08:41:12.223Z,100937.93
2019-06-10T08:42:19.650Z,100942.22
2019-06-10T08:43:27.446Z,100945.46
2019-06-10T08:44:34.540Z,100950.49
2019-06-10T08:45:44.187Z,100950.77
2019-06-10T08:46:52.460Z,100944.17
2019-06-10T08:48:02.524Z,100946.77
2019-06-10T08:49:08.749Z,100947.59
2019-06-10T08:50:16.297Z,100943.60
2019-06-10T08:51:23.888Z,100946.22
2019-06-10T08:52:49.405Z,100948.38
2019-06-10T08:53:44.099Z,100944.97
2019-06-10T08:54:54.154Z,100942.52
2019-06-10T08:55:59.227Z,100944.81
2019-06-10T08:57:07.005Z,100940.31
2019-06-10T08:58:13.755Z,100937.28
2019-06-10T08:59:23.082Z,100941.56
2019-06-10T09:00:30.200Z,100936.34
2019-06-10T09:01:40.433Z,100935.30
2019-06-10T09:02:49.890Z,100939.59
2019-06-10T09:03:56.554Z,100939.50
2019-06-10T09:05:03.867Z,100932.03
2019-06-10T09:06:13.272Z,100933.08
2019-06-10T09:07:22.792Z,100933.58
2019-06-10T09:08:29.578Z,100928.63
2019-06-10T09:09:36.377Z,100929.26
2019-06-10T09:10:47.953Z,100931.69
2019-06-10T09:11:54.694Z,100929.33
2019-06-10T09:13:02.817Z,100923.55
2019-06-10T09:14:12.620Z,100933.31
2019-06-10T09:15:21.403Z,100930.70
2019-06-10T09:16:29.191Z,100928.55
2019-06-10T09:17:37.117Z,100928.86
2019-06-10T09:18:47.447Z,100921.68
2019-06-10T09:19:54.192Z,100923.30
2019-06-10T09:21:02.309Z,100926.80
2019-06-10T09:22:12.543Z,100924.67
2019-06-10T09:23:22.462Z,100922.26
2019-06-10T09:24:28.780Z,100924.20
2019-06-10T09:25:35.884Z,100927.12
2019-06-10T09:26:47.944Z,100928.36
2019-06-10T09:27:54.644Z,100925.37
2019-06-10T09:29:02.851Z,100924.64
2019-06-10T09:30:13.511Z,100924.80
2019-06-10T09:31:22.974Z,100924.45
2019-06-10T09:32:29.034Z,100929.09
2019-06-10T09:33:36.579Z,100921.63
2019-06-10T09:34:51.576Z,100918.98
2019-06-10T09:35:55.059Z,100919.90
2019-06-10T09:37:03.526Z,100920.00
2019-06-10T09:38:11.047Z,100918.84
2019-06-10T09:39:18.839Z,100924.06
2019-06-10T09:41:01.338Z,100926.58
2019-06-10T09:42:06.186Z,100923.45
2019-06-10T09:43:12.828Z,100921.53
2019-06-10T09:44:19.901Z,100918.62
2019-06-10T09:45:27.826Z,100914.99
2019-06-10T09:46:36.084Z,100916.84
2019-06-10T09:47:47.116Z,100911.94
2019-06-10T09:48:55.955Z,100912.00
2019-06-10T09:50:03.499Z,100917.08
2019-06-10T09:51:12.473Z,100923.02
2019-06-10T09:52:23.924Z,100917.95
2019-06-10T09:53:35.715Z,100920.31
2019-06-10T09:54:41.606Z,100919.20
2019-06-10T09:55:50.809Z,100921.24
2019-06-10T09:56:58.287Z,100921.24
2019-06-10T09:58:05.222Z,100920.56
2019-06-10T09:59:16.138Z,100919.20
2019-06-10T10:00:47.549Z,100917.27
2019-06-10T10:01:57.897Z,100924.72
2019-06-10T10:03:00.432Z,100921.53
2019-06-10T10:04:09.004Z,100915.92
2019-06-10T10:05:17.827Z,100915.87
2019-06-10T10:06:26.167Z,100920.55
2019-06-10T10:07:34.498Z,100926.64
2019-06-10T10:08:45.938Z,100913.16
2019-06-10T10:09:56.664Z,100912.01
2019-06-10T10:11:01.193Z,100913.22
2019-06-10T10:12:07.952Z,100913.04
2019-06-10T10:13:15.484Z,100908.83
2019-06-10T10:14:23.040Z,100905.44
2019-06-10T10:15:34.395Z,100904.96
2019-06-10T10:16:39.322Z,100905.11
2019-06-10T10:17:49.136Z,100893.27
2019-06-10T10:19:00.173Z,100903.60
2019-06-10T10:20:06.080Z,100889.47
2019-06-10T10:21:13.216Z,100898.29
2019-06-10T10:22:22.899Z,100894.94
2019-06-10T10:23:43.368Z,100893.87
2019-06-10T10:24:39.083Z,100898.41
2019-06-10T10:25:47.872Z,100900.70
2019-06-10T10:26:57.889Z,100892.52
2019-06-10T10:28:04.481Z,100896.68
2019-06-10T10:29:13.035Z,100890.95
2019-06-10T10:30:28.253Z,100885.38
2019-06-10T10:31:36.566Z,100887.88
2019-06-10T10:32:47.104Z,100888.02
2019-06-10T10:33:53.065Z,100882.31
2019-06-10T10:35:02.763Z,100882.13
2019-06-10T10:36:09.501Z,100877.01
2019-06-10T10:37:16.660Z,100875.45
2019-06-10T10:38:24.405Z,100881.61
2019-06-10T10:39:32.764Z,100881.81
2019-06-10T10:40:43.382Z,100874.11
2019-06-10T10:41:50.215Z,100880.32
2019-06-10T10:43:16.272Z,100884.08
2019-06-10T10:44:08.273Z,100879.73
2019-06-10T10:45:16.751Z,100878.80
2019-06-10T10:46:23.838Z,100875.77
2019-06-10T10:47:33.492Z,100870.92
2019-06-10T10:48:40.243Z,100869.25
2019-06-10T10:49:49.105Z,100877.97
2019-06-10T10:50:56.250Z,100866.63
2019-06-10T10:52:04.319Z,100871.47
2019-06-10T10:53:12.854Z,100873.16
2019-06-10T10:54:29.660Z,100872.52
2019-06-10T10:55:29.512Z,100879.16
2019-06-10T10:56:37.378Z,100881.40
2019-06-10T10:57:45.161Z,100882.47
2019-06-10T10:58:57.789Z,100872.12
2019-06-10T11:00:03.195Z,100861.42
2019-06-10T11:01:14.601Z,100854.03
2019-06-10T11:02:19.543Z,100848.58
2019-06-10T11:03:27.117Z,100844.94
2019-06-10T11:04:35.989Z,100855.88
2019-06-10T11:05:46.225Z,100849.70
2019-06-10T11:06:56.534Z,100844.97
2019-06-10T11:08:04.201Z,100847.43
2019-06-10T11:09:13.005Z,100837.23
2019-06-10T11:10:23.652Z,100831.80
2019-06-10T11:11:33.277Z,100832.51
2019-06-10T11:12:46.918Z,100836.53
2019-06-10T11:13:58.197Z,100846.18
2019-06-10T11:15:05.253Z,100835.12
2019-06-10T11:16:12.637Z,100845.48
2019-06-10T11:17:22.189Z,100837.16
2019-06-10T11:18:29.539Z,100840.41
2019-06-10T11:19:37.765Z,100838.02
2019-06-10T11:20:45.264Z,100838.23
2019-06-10T11:21:53.677Z,100839.17
2019-06-10T11:23:02.930Z,100836.38
2019-06-10T11:24:14.210Z,100838.88
2019-06-10T11:25:19.590Z,100827.87
2019-06-10T11:26:27.670Z,100828.58
2019-06-10T11:27:35.425Z,100829.41
2019-06-10T11:28:43.376Z,100829.13
2019-06-10T11:29:50.949Z,100819.48
2019-06-10T11:30:59.933Z,100828.09
2019-06-10T11:32:06.863Z,100825.20
2019-06-10T11:33:15.917Z,100824.76
2019-06-10T11:34:23.170Z,100825.47
2019-06-10T11:35:30.706Z,100820.20
2019-06-10T11:36:37.450Z,100819.15
2019-06-10T11:37:45.333Z,100823.56
2019-06-10T11:38:54.896Z,100818.33
2019-06-10T11:40:02.924Z,100824.16
2019-06-10T11:41:13.300Z,100824.27
2019-06-10T11:42:19.454Z,100822.25
2019-06-10T11:43:26.701Z,100827.26
2019-06-10T11:44:34.431Z,100822.84
2019-06-10T11:45:48.099Z,100822.50
2019-06-10T11:46:54.064Z,100822.50
2019-06-10T11:48:02.349Z,100820.80
2019-06-10T11:49:09.226Z,100818.90
2019-06-10T11:50:16.899Z,100819.39
2019-06-10T11:51:24.963Z,100816.29
2019-06-10T11:52:33.489Z,100818.09
2019-06-10T11:53:43.714Z,100813.58
2019-06-10T11:54:58.195Z,100816.76
2019-06-10T11:55:58.830Z,100812.12
2019-06-10T11:57:05.938Z,100809.39
2019-06-10T11:58:13.478Z,100815.02
2019-06-10T11:59:20.637Z,100810.37
2019-06-10T12:00:28.559Z,100812.17
2019-06-10T12:01:35.345Z,100807.44
2019-06-10T12:02:43.376Z,100811.70
2019-06-10T12:03:51.102Z,100801.27
2019-06-10T12:05:03.279Z,100803.44
2019-06-10T12:06:08.515Z,100806.55
2019-06-10T12:07:16.161Z,100805.84
2019-06-10T12:08:23.892Z,100806.66
2019-06-10T12:09:33.354Z,100803.11
2019-06-10T12:10:40.423Z,100799.52
2019-06-10T12:11:49.083Z,100798.09
2019-06-10T12:12:58.949Z,100795.70
2019-06-10T12:14:05.759Z,100803.81
2019-06-10T12:15:14.006Z,100796.19
2019-06-10T12:17:13.319Z,100791.44
2019-06-10T12:17:42.946Z,100797.01
2019-06-10T12:18:39.602Z,100794.98
2019-06-10T12:19:46.659Z,100792.14
2019-06-10T12:20:57.557Z,100788.56
2019-06-10T12:22:07.327Z,100791.78
2019-06-10T12:23:13.521Z,100794.53
2019-06-10T12:24:23.060Z,100786.56
2019-06-10T12:25:38.433Z,100790.61
2019-06-10T12:26:38.502Z,100790.22
2019-06-10T12:27:46.427Z,100784.62
2019-06-10T12:28:56.283Z,100783.80
2019-06-10T12:30:04.922Z,100775.34
2019-06-10T12:31:13.407Z,100782.14
2019-06-10T12:32:22.510Z,100774.97
2019-06-10T12:33:33.351Z,100774.38
2019-06-10T12:34:40.081Z,100773.19
2019-06-10T12:35:47.004Z,100767.71
2019-06-10T12:36:58.325Z,100772.92
2019-06-10T12:38:06.070Z,100772.75
2019-06-10T12:39:17.058Z,100764.55
2019-06-10T12:40:22.453Z,100764.33
2019-06-10T12:41:30.004Z,100768.03
2019-06-10T12:42:36.731Z,100766.73
2019-06-10T12:43:44.278Z,100767.66
2019-06-10T12:44:53.828Z,100763.72
2019-06-10T12:46:01.637Z,100766.58
2019-06-10T12:47:08.927Z,100765.16
2019-06-10T12:48:16.468Z,100766.59
2019-06-10T12:49:23.559Z,100764.66
2019-06-10T12:50:31.198Z,100762.34
2019-06-10T12:51:38.447Z,100768.64
2019-06-10T12:52:46.273Z,100769.19
2019-06-10T12:53:53.288Z,100770.70
2019-06-10T12:55:02.391Z,100769.58
2019-06-10T12:56:11.345Z,100767.83
2019-06-10T12:57:18.834Z,100767.55
2019-06-10T12:58:25.625Z,100761.12
2019-06-10T12:59:33.473Z,100767.44
2019-06-10T13:00:48.089Z,100769.80
2019-06-10T13:01:55.898Z,100765.69